Time;durP1;ratioP1;P1;durP2;ratioP2;P2;SDS_P1;SDS_P2;PMS_P1;PMS_P2;Temp;Humidity;BMP_temperature;BMP_pressure;BME280_temperature;BME280_humidity;BME280_pressure;Samples;Min_cycle;Max_cycle;Signal;HPM_P1;HPM_P2
2021/06/23 00:01:15;;;;;;;1.02;0.35;;;17.30;74.70;;;;;;5031532;28;20407;-84
2021/06/23 00:03:41;;;;;;;0.35;0.20;;;17.30;74.80;;;;;;5031868;28;20037;-84
2021/06/23 00:06:08;;;;;;;0.25;0.08;;;17.30;74.70;;;;;;5033088;28;20041;-84
2021/06/23 00:08:34;;;;;;;0.22;0.10;;;17.30;74.70;;;;;;5032856;28;20052;-83
2021/06/23 00:11:00;;;;;;;0.38;0.10;;;17.30;74.70;;;;;;5032835;28;20044;-84
2021/06/23 00:13:30;;;;;;;0.28;0.00;;;17.30;74.70;;;;;;5031907;28;20029;-83
2021/06/23 00:15:56;;;;;;;0.30;0.10;;;17.30;74.70;;;;;;5017212;28;20033;-83
2021/06/23 00:18:22;;;;;;;0.47;0.20;;;17.30;74.50;;;;;;5033372;28;20037;-84
2021/06/23 00:20:48;;;;;;;0.30;0.05;;;17.30;74.50;;;;;;5032420;28;20387;-83
2021/06/23 00:23:14;;;;;;;0.25;0.10;;;17.30;74.60;;;;;;5031259;28;20045;-83
2021/06/23 00:25:40;;;;;;;0.35;0.00;;;17.20;74.60;;;;;;5032671;28;20033;-84
2021/06/23 00:28:06;;;;;;;0.82;0.20;;;17.20;74.60;;;;;;5031438;28;20387;-85
2021/06/23 00:30:32;;;;;;;0.50;0.10;;;17.20;74.70;;;;;;5032055;28;20037;-84
2021/06/23 00:33:08;;;;;;;1.45;0.55;;;17.10;74.80;;;;;;5031927;28;20407;-83
2021/06/23 00:35:35;;;;;;;0.60;0.28;;;17.10;74.90;;;;;;5032019;28;20042;-83
2021/06/23 00:38:01;;;;;;;1.35;0.75;;;17.00;75.00;;;;;;5032440;28;20041;-83
2021/06/23 00:40:28;;;;;;;0.55;0.35;;;17.00;75.10;;;;;;5031152;28;20044;-83
2021/06/23 00:42:54;;;;;;;0.47;0.30;;;16.90;75.10;;;;;;5031142;28;20045;-83
2021/06/23 00:45:20;;;;;;;0.20;0.10;;;16.90;75.00;;;;;;5032471;28;20464;-84
2021/06/23 00:47:47;;;;;;;0.95;0.45;;;16.90;75.10;;;;;;5031132;28;20038;-84
2021/06/23 00:50:14;;;;;;;0.20;0.20;;;16.90;75.20;;;;;;5029777;28;20063;-83
2021/06/23 00:52:41;;;;;;;5.72;1.35;;;16.90;75.20;;;;;;5031010;28;20388;-84
2021/06/23 00:55:07;;;;;;;3.17;0.75;;;16.80;75.10;;;;;;5030975;28;20029;-84
2021/06/23 00:57:33;;;;;;;1.75;0.32;;;16.80;75.10;;;;;;5032085;28;20044;-83
2021/06/23 00:59:59;;;;;;;0.85;0.10;;;16.80;75.30;;;;;;5030986;28;20041;-83
2021/06/23 01:02:25;;;;;;;0.85;0.40;;;16.80;75.30;;;;;;5030162;28;20049;-83
2021/06/23 01:04:52;;;;;;;1.70;0.47;;;16.80;75.30;;;;;;5014345;28;20038;-84
2021/06/23 01:07:18;;;;;;;1.63;0.22;;;16.70;75.20;;;;;;5030844;28;20029;-84
2021/06/23 01:09:44;;;;;;;0.77;0.30;;;16.70;75.20;;;;;;5014404;28;20043;-84
2021/06/23 01:12:21;;;;;;;0.88;0.43;;;16.70;75.20;;;;;;5031336;28;20037;-83
2021/06/23 01:14:47;;;;;;;1.85;0.90;;;16.70;75.20;;;;;;5011894;28;20042;-83
2021/06/23 01:17:14;;;;;;;1.85;0.77;;;16.70;75.20;;;;;;5022562;28;20511;-85
2021/06/23 01:19:42;;;;;;;0.30;0.10;;;16.70;75.20;;;;;;5030197;28;20041;-83
2021/06/23 01:22:10;;;;;;;0.90;0.30;;;16.60;75.20;;;;;;5014233;28;20072;-85
2021/06/23 01:24:37;;;;;;;2.45;0.52;;;16.60;75.20;;;;;;5014483;28;20493;-84
2021/06/23 01:27:03;;;;;;;3.95;0.98;;;16.60;75.20;;;;;;5032128;28;20044;-83
2021/06/23 01:29:29;;;;;;;1.13;0.30;;;16.60;75.20;;;;;;5030247;28;20420;-83
2021/06/23 01:31:55;;;;;;;1.10;0.28;;;16.60;75.20;;;;;;5030950;28;20044;-83
2021/06/23 01:34:21;;;;;;;1.75;0.47;;;16.70;75.20;;;;;;5030528;28;20049;-84
2021/06/23 01:36:47;;;;;;;1.00;0.52;;;16.70;75.20;;;;;;5031503;28;20052;-85
2021/06/23 01:39:13;;;;;;;3.15;0.57;;;16.70;75.20;;;;;;5032120;28;20531;-83
2021/06/23 01:41:39;;;;;;;1.58;0.90;;;16.60;75.20;;;;;;5031440;28;20505;-84
2021/06/23 01:44:05;;;;;;;1.98;0.40;;;16.60;75.20;;;;;;5031624;28;20040;-83
2021/06/23 01:46:31;;;;;;;1.27;0.73;;;16.60;75.20;;;;;;5030689;28;20053;-83
2021/06/23 01:48:58;;;;;;;2.33;0.30;;;16.60;75.20;;;;;;5031563;28;20038;-83
2021/06/23 01:51:24;;;;;;;2.00;0.63;;;16.60;75.20;;;;;;5030951;28;20025;-84
2021/06/23 01:53:50;;;;;;;1.73;0.35;;;16.60;75.20;;;;;;5031568;28;20036;-83
2021/06/23 01:56:16;;;;;;;3.25;0.93;;;16.60;75.20;;;;;;5029831;28;20037;-83
2021/06/23 01:58:42;;;;;;;2.75;0.73;;;16.60;75.20;;;;;;5030191;28;20040;-84
2021/06/23 02:01:40;;;;;;;1.27;0.40;;;16.60;75.10;;;;;;5030895;28;20037;-83
2021/06/23 02:04:11;;;;;;;3.90;0.80;;;16.60;75.20;;;;;;5020137;28;20380;-83
2021/06/23 02:06:49;;;;;;;0.30;0.20;;;16.60;75.10;;;;;;5035352;28;20021;-85
2021/06/23 02:09:36;;;;;;;5.63;0.25;;;16.60;75.10;;;;;;5035047;28;20033;-83
2021/06/23 02:12:11;;;;;;;1.77;0.75;;;16.60;75.20;;;;;;5047512;28;20041;-84
2021/06/23 02:14:40;;;;;;;3.60;1.20;;;16.50;75.10;;;;;;5033270;28;20036;-83
2021/06/23 02:17:08;;;;;;;2.97;1.05;;;16.50;75.30;;;;;;5032792;28;20037;-84
2021/06/23 02:19:45;;;;;;;1.98;1.08;;;16.50;75.20;;;;;;5033911;28;20049;-83
2021/06/23 02:22:35;;;;;;;1.98;0.95;;;16.50;75.30;;;;;;5034144;28;20056;-84
2021/06/23 02:25:10;;;;;;;1.95;0.98;;;16.50;75.30;;;;;;5018852;28;20040;-84
2021/06/23 02:27:38;;;;;;;3.95;1.15;;;16.50;75.40;;;;;;5033709;28;20042;-84
2021/06/23 02:30:05;;;;;;;2.65;0.77;;;16.40;75.50;;;;;;5033037;28;20037;-84
2021/06/23 02:32:31;;;;;;;3.50;1.17;;;16.40;75.50;;;;;;5034775;28;20071;-84
2021/06/23 02:34:58;;;;;;;3.05;1.17;;;16.40;75.50;;;;;;5033611;28;20387;-84
2021/06/23 02:37:24;;;;;;;1.23;0.43;;;16.40;75.40;;;;;;5033697;28;20026;-85
2021/06/23 02:39:51;;;;;;;2.45;0.35;;;16.40;75.50;;;;;;5033159;28;20415;-84
2021/06/23 02:42:17;;;;;;;1.88;0.82;;;16.40;75.50;;;;;;5035232;28;20479;-83
2021/06/23 02:44:43;;;;;;;9.20;0.88;;;16.40;75.50;;;;;;5033043;28;20033;-82
2021/06/23 02:47:09;;;;;;;4.22;0.35;;;16.40;75.50;;;;;;5032887;28;20033;-83
2021/06/23 02:49:37;;;;;;;1.25;0.70;;;16.40;75.50;;;;;;5033214;28;20044;-84
2021/06/23 02:52:03;;;;;;;2.58;1.33;;;16.40;75.40;;;;;;5033175;28;20029;-84
2021/06/23 02:54:29;;;;;;;3.13;1.23;;;16.40;75.40;;;;;;5033150;28;20033;-84
2021/06/23 02:56:55;;;;;;;1.95;0.65;;;16.40;75.50;;;;;;5033498;28;20021;-84
2021/06/23 02:59:21;;;;;;;4.25;0.70;;;16.40;75.50;;;;;;5032655;28;20030;-84
2021/06/23 03:01:48;;;;;;;7.28;2.20;;;16.30;75.60;;;;;;5033773;28;20046;-84
2021/06/23 03:04:14;;;;;;;3.45;1.48;;;16.30;75.60;;;;;;5016456;28;20049;-84
2021/06/23 03:06:40;;;;;;;1.70;0.40;;;16.30;75.60;;;;;;5034195;28;20025;-84
2021/06/23 03:09:06;;;;;;;2.65;0.22;;;16.30;75.70;;;;;;5034525;28;20034;-84
2021/06/23 03:11:36;;;;;;;3.53;0.95;;;16.20;75.60;;;;;;5032881;28;20407;-82
2021/06/23 03:14:02;;;;;;;1.63;1.00;;;16.20;75.80;;;;;;5033487;28;20049;-83
2021/06/23 03:16:29;;;;;;;5.82;0.47;;;16.20;75.80;;;;;;5032213;28;20041;-84
2021/06/23 03:18:55;;;;;;;2.00;1.02;;;16.20;75.80;;;;;;5032728;28;20025;-83
2021/06/23 03:21:21;;;;;;;4.63;1.38;;;16.20;75.80;;;;;;5030579;28;20048;-83
2021/06/23 03:23:48;;;;;;;2.22;1.15;;;16.10;75.80;;;;;;4996325;28;20052;-84
2021/06/23 03:26:14;;;;;;;2.72;0.70;;;16.10;75.80;;;;;;5024992;28;20021;-84
2021/06/23 03:28:40;;;;;;;1.90;0.55;;;16.10;75.80;;;;;;5031984;28;20029;-83
2021/06/23 03:31:06;;;;;;;4.28;1.27;;;16.10;75.80;;;;;;5032081;28;20033;-83
2021/06/23 03:33:32;;;;;;;1.55;1.08;;;16.10;76.70;;;;;;5033600;28;20502;-84
2021/06/23 03:35:58;;;;;;;2.92;0.75;;;16.00;76.00;;;;;;5033984;28;20032;-83
2021/06/23 03:38:24;;;;;;;4.60;1.73;;;16.00;76.00;;;;;;5033408;28;20033;-83
2021/06/23 03:40:50;;;;;;;4.57;1.33;;;16.00;75.90;;;;;;5032369;28;20025;-83
2021/06/23 03:43:20;;;;;;;0.73;0.20;;;16.00;75.80;;;;;;5031921;28;20399;-84
2021/06/23 03:45:47;;;;;;;1.30;0.95;;;16.00;75.80;;;;;;5031844;28;20498;-84
2021/06/23 03:48:13;;;;;;;1.33;0.57;;;16.00;75.90;;;;;;5032765;28;20029;-84
2021/06/23 03:50:39;;;;;;;3.50;1.15;;;16.00;76.00;;;;;;5033201;28;20052;-84
2021/06/23 03:53:05;;;;;;;3.08;1.02;;;16.00;76.00;;;;;;5033143;28;20041;-84
2021/06/23 03:55:32;;;;;;;3.80;0.73;;;16.00;76.10;;;;;;5031745;28;20052;-84
2021/06/23 03:57:58;;;;;;;2.58;0.80;;;16.00;76.00;;;;;;5032853;28;20040;-84
2021/06/23 04:00:28;;;;;;;2.38;0.77;;;16.00;76.00;;;;;;5033182;28;20029;-84
2021/06/23 04:02:54;;;;;;;16.03;0.60;;;16.00;76.00;;;;;;5034139;28;20431;-84
2021/06/23 04:05:21;;;;;;;2.25;0.95;;;15.90;75.90;;;;;;5015470;28;20029;-83
2021/06/23 04:07:47;;;;;;;2.33;0.88;;;15.90;76.00;;;;;;5031822;28;20497;-83
2021/06/23 04:10:13;;;;;;;1.95;0.38;;;15.90;76.10;;;;;;5033003;28;20463;-84
2021/06/23 04:12:39;;;;;;;1.65;0.55;;;15.80;76.10;;;;;;5013490;28;20041;-84
2021/06/23 04:15:06;;;;;;;3.10;0.57;;;15.80;76.10;;;;;;5031011;28;20503;-84
2021/06/23 04:17:33;;;;;;;1.58;1.00;;;15.90;76.20;;;;;;5032947;28;20514;-84
2021/06/23 04:19:59;;;;;;;2.90;1.10;;;15.90;76.10;;;;;;5031472;28;20030;-83
2021/06/23 04:22:25;;;;;;;2.30;0.70;;;15.80;76.10;;;;;;5032827;28;20037;-83
2021/06/23 04:24:52;;;;;;;4.43;0.93;;;15.80;76.10;;;;;;5030833;28;20410;-84
2021/06/23 04:27:22;;;;;;;0.98;0.30;;;15.80;76.20;;;;;;5031715;28;20040;-84
2021/06/23 04:29:48;;;;;;;6.10;1.33;;;15.80;76.10;;;;;;5031004;28;20052;-84
2021/06/23 04:32:14;;;;;;;2.90;0.70;;;15.80;76.10;;;;;;5032017;28;20408;-83
2021/06/23 04:34:40;;;;;;;2.45;1.00;;;15.80;76.10;;;;;;5032437;28;20049;-84
2021/06/23 04:37:06;;;;;;;0.77;0.45;;;15.80;76.10;;;;;;5031448;28;20041;-84
2021/06/23 04:39:33;;;;;;;4.80;1.13;;;15.80;76.10;;;;;;5032659;28;20040;-83
2021/06/23 04:41:59;;;;;;;1.45;0.82;;;15.80;76.10;;;;;;5032319;28;20029;-84
2021/06/23 04:44:25;;;;;;;6.30;1.40;;;15.80;76.20;;;;;;5011178;28;20056;-84
2021/06/23 04:46:51;;;;;;;0.73;0.50;;;15.70;76.20;;;;;;5023930;28;20040;-83
2021/06/23 04:49:17;;;;;;;5.53;1.48;;;15.70;76.20;;;;;;5030736;28;20431;-84
2021/06/23 04:51:43;;;;;;;1.83;0.50;;;15.80;76.20;;;;;;5031997;28;20025;-84
2021/06/23 04:54:09;;;;;;;1.65;0.52;;;15.80;76.20;;;;;;5031269;28;20503;-84
2021/06/23 04:56:35;;;;;;;1.02;0.73;;;15.80;76.10;;;;;;5031796;28;20040;-83
2021/06/23 04:59:01;;;;;;;3.50;1.40;;;15.80;76.10;;;;;;5031903;28;20407;-84
2021/06/23 05:01:27;;;;;;;2.33;1.05;;;15.80;76.20;;;;;;5031785;28;20041;-84
2021/06/23 05:03:53;;;;;;;6.05;1.40;;;15.80;76.20;;;;;;5016117;28;20446;-83
2021/06/23 05:06:20;;;;;;;1.35;0.52;;;15.80;76.10;;;;;;5031334;28;20034;-83
2021/06/23 05:08:46;;;;;;;2.80;0.90;;;15.90;76.20;;;;;;5031868;28;20041;-84
2021/06/23 05:11:12;;;;;;;7.63;1.10;;;15.80;76.10;;;;;;5031669;28;20040;-84
2021/06/23 05:13:38;;;;;;;2.42;0.90;;;15.80;76.10;;;;;;5031906;28;20037;-83
2021/06/23 05:16:05;;;;;;;5.45;1.05;;;15.80;76.10;;;;;;5031434;28;20037;-83
2021/06/23 05:18:31;;;;;;;2.97;1.30;;;15.80;76.10;;;;;;5032287;28;20050;-84
2021/06/23 05:20:58;;;;;;;2.58;0.65;;;15.80;76.00;;;;;;5030118;28;20040;-83
2021/06/23 05:23:24;;;;;;;3.58;1.08;;;15.80;76.00;;;;;;5031697;28;20514;-84
2021/06/23 05:25:50;;;;;;;5.25;1.27;;;15.90;76.00;;;;;;5030151;28;20403;-83
2021/06/23 05:28:16;;;;;;;2.00;1.00;;;15.90;76.00;;;;;;5029984;28;20046;-84
2021/06/23 05:30:42;;;;;;;1.75;0.57;;;15.90;76.00;;;;;;5013437;28;20052;-82
2021/06/23 05:33:08;;;;;;;2.25;0.80;;;15.90;75.90;;;;;;5032180;28;20037;-84
2021/06/23 05:35:34;;;;;;;2.13;1.30;;;15.90;75.90;;;;;;5032627;28;20038;-84
2021/06/23 05:38:00;;;;;;;3.08;0.63;;;16.00;75.90;;;;;;5034437;28;20041;-84
2021/06/23 05:40:26;;;;;;;5.97;1.13;;;16.00;75.90;;;;;;5034183;28;20029;-84
2021/06/23 05:42:52;;;;;;;4.65;0.93;;;16.00;75.80;;;;;;5034520;28;20042;-84
2021/06/23 05:45:18;;;;;;;8.65;1.80;;;16.00;75.80;;;;;;5034635;28;20049;-84
2021/06/23 05:47:45;;;;;;;2.25;1.20;;;16.00;75.80;;;;;;5035474;28;20395;-84
2021/06/23 05:50:11;;;;;;;2.25;0.80;;;16.00;75.80;;;;;;5035483;28;20036;-83
2021/06/23 05:52:37;;;;;;;1.75;0.70;;;16.00;75.80;;;;;;5035441;28;20026;-84
2021/06/23 05:55:04;;;;;;;3.13;0.82;;;16.10;75.70;;;;;;5033808;28;20038;-82
2021/06/23 05:57:30;;;;;;;4.68;0.95;;;16.10;75.70;;;;;;5034595;28;20025;-84
2021/06/23 05:59:56;;;;;;;1.50;0.60;;;16.10;75.70;;;;;;5035818;28;20121;-84
2021/06/23 06:02:22;;;;;;;3.40;1.45;;;16.10;75.70;;;;;;5034866;28;20033;-83
2021/06/23 06:04:49;;;;;;;1.17;0.57;;;16.10;75.60;;;;;;5035294;28;20526;-84
2021/06/23 06:07:15;;;;;;;1.13;0.68;;;16.10;75.70;;;;;;5035308;28;20380;-83
2021/06/23 06:09:41;;;;;;;1.83;0.30;;;16.10;75.60;;;;;;5035500;28;20041;-84
2021/06/23 06:12:07;;;;;;;6.45;1.38;;;16.20;75.60;;;;;;5035723;28;20025;-84
2021/06/23 06:14:33;;;;;;;1.80;0.88;;;16.20;75.50;;;;;;5035003;28;20033;-82
2021/06/23 06:17:00;;;;;;;2.28;0.70;;;16.20;75.50;;;;;;5034705;28;20035;-83
2021/06/23 06:19:26;;;;;;;0.57;0.30;;;16.20;75.60;;;;;;5033764;28;20100;-85
2021/06/23 06:21:54;;;;;;;4.90;0.95;;;16.20;75.50;;;;;;5034790;28;20029;-84
2021/06/23 06:24:21;;;;;;;7.93;0.75;;;16.20;75.50;;;;;;5034225;28;20054;-84
2021/06/23 06:26:47;;;;;;;1.30;0.63;;;16.20;75.40;;;;;;5034805;28;20498;-84
2021/06/23 06:29:13;;;;;;;3.13;1.02;;;16.30;75.40;;;;;;5034676;28;20044;-84
2021/06/23 06:31:40;;;;;;;1.00;0.60;;;16.30;75.40;;;;;;5034081;28;20400;-83
2021/06/23 06:34:06;;;;;;;7.38;1.20;;;16.30;75.30;;;;;;5034859;28;20041;-84
2021/06/23 06:36:32;;;;;;;6.38;0.82;;;16.40;75.30;;;;;;5034525;28;20037;-82
2021/06/23 06:38:58;;;;;;;3.42;1.08;;;16.40;75.00;;;;;;5033942;28;20032;-84
2021/06/23 06:41:24;;;;;;;1.55;0.80;;;16.50;75.10;;;;;;5034605;28;20045;-84
2021/06/23 06:43:50;;;;;;;5.30;0.82;;;16.60;74.90;;;;;;5034520;28;20041;-84
2021/06/23 06:46:17;;;;;;;9.52;1.02;;;16.60;74.80;;;;;;5032936;28;20041;-85
2021/06/23 06:48:43;;;;;;;3.75;1.10;;;16.60;74.70;;;;;;5032525;28;20041;-84
2021/06/23 06:51:09;;;;;;;1.63;0.88;;;16.60;74.80;;;;;;5033541;28;20040;-84
2021/06/23 06:53:35;;;;;;;1.95;0.52;;;16.60;74.80;;;;;;5033109;28;20510;-83
2021/06/23 06:56:01;;;;;;;2.63;1.08;;;16.60;74.80;;;;;;5034437;28;20025;-84
2021/06/23 06:58:27;;;;;;;2.67;1.20;;;16.60;74.80;;;;;;5032960;28;20038;-85
2021/06/23 07:00:53;;;;;;;1.70;0.75;;;16.60;74.80;;;;;;5034342;28;20025;-85
2021/06/23 07:03:19;;;;;;;2.10;0.85;;;16.60;74.70;;;;;;5034668;28;20033;-84
2021/06/23 07:05:45;;;;;;;2.38;0.88;;;16.70;74.70;;;;;;5032571;28;20026;-84
2021/06/23 07:08:12;;;;;;;1.48;0.52;;;16.70;74.50;;;;;;5034079;28;20036;-84
2021/06/23 07:10:38;;;;;;;4.35;0.88;;;16.70;74.50;;;;;;5032607;28;20048;-84
2021/06/23 07:13:04;;;;;;;1.55;0.17;;;16.80;74.50;;;;;;5034053;28;20030;-84
2021/06/23 07:15:30;;;;;;;1.00;0.55;;;16.70;74.40;;;;;;5032588;28;20377;-84
2021/06/23 07:17:57;;;;;;;4.45;1.27;;;16.80;74.40;;;;;;5034378;28;20045;-84
2021/06/23 07:20:23;;;;;;;8.13;1.40;;;16.80;74.30;;;;;;5033594;28;20032;-84
2021/06/23 07:22:50;;;;;;;2.22;0.85;;;16.90;74.30;;;;;;5033756;28;20056;-84
2021/06/23 07:25:16;;;;;;;0.82;0.70;;;16.90;74.10;;;;;;5033979;28;20029;-84
2021/06/23 07:27:42;;;;;;;0.52;0.28;;;16.90;74.10;;;;;;5032533;28;20056;-83
2021/06/23 07:30:08;;;;;;;2.85;0.73;;;16.90;74.10;;;;;;5033572;28;20045;-84
2021/06/23 07:37:54;;;;;;;3.30;1.08;;;16.90;74.30;;;;;;5032871;28;20033;-85
2021/06/23 07:40:32;;;;;;;1.48;0.70;;;16.90;73.90;;;;;;5032437;28;20030;-84
2021/06/23 07:42:59;;;;;;;5.80;0.75;;;16.90;73.90;;;;;;5018301;28;20471;-85
2021/06/23 07:45:25;;;;;;;1.38;0.45;;;17.00;73.90;;;;;;5033806;28;20041;-84
2021/06/23 07:47:51;;;;;;;3.80;0.70;;;17.00;73.80;;;;;;5033433;28;20040;-83
2021/06/23 07:50:17;;;;;;;0.75;0.10;;;17.00;73.70;;;;;;5032927;28;20256;-83
2021/06/23 07:52:51;;;;;;;0.93;0.50;;;17.00;73.50;;;;;;5033310;28;20037;-84
2021/06/23 08:09:14;;;;;;;0.63;0.30;;;17.10;73.00;;;;;;5032737;28;20032;-84
2021/06/23 08:11:42;;;;;;;2.75;0.70;;;17.10;73.00;;;;;;5032811;28;20380;-83
2021/06/23 08:14:08;;;;;;;0.10;0.08;;;17.00;73.00;;;;;;5032885;28;20407;-84
2021/06/23 08:16:35;;;;;;;4.82;0.98;;;17.00;72.90;;;;;;5032239;28;20045;-84
2021/06/23 08:19:02;;;;;;;2.78;0.75;;;17.00;73.00;;;;;;5031143;28;20040;-83
2021/06/23 08:21:28;;;;;;;4.07;0.75;;;17.00;73.10;;;;;;5033295;28;20021;-84
2021/06/23 08:23:54;;;;;;;2.30;0.40;;;17.00;73.10;;;;;;5032530;28;20037;-84
2021/06/23 08:26:20;;;;;;;7.38;0.65;;;17.00;73.10;;;;;;5031457;28;20026;-83
2021/06/23 08:28:46;;;;;;;1.17;0.32;;;17.10;73.00;;;;;;5032422;28;20029;-84
2021/06/23 08:31:12;;;;;;;1.92;0.75;;;17.10;72.90;;;;;;5032245;28;20037;-84
2021/06/23 08:33:38;;;;;;;0.45;0.20;;;17.00;72.70;;;;;;5031056;28;20045;-84
2021/06/23 08:36:05;;;;;;;0.82;0.50;;;17.00;72.70;;;;;;5032956;28;20037;-84
2021/06/23 08:38:31;;;;;;;1.08;0.70;;;17.00;72.70;;;;;;5032394;28;20036;-84
2021/06/23 08:40:57;;;;;;;1.80;0.70;;;17.00;72.70;;;;;;5031151;28;20032;-84
2021/06/23 08:43:24;;;;;;;1.65;0.35;;;17.00;72.60;;;;;;5031143;28;20491;-84
2021/06/23 08:45:50;;;;;;;1.23;0.40;;;17.00;72.50;;;;;;5014046;28;20043;-85
2021/06/23 08:48:16;;;;;;;0.82;0.50;;;17.00;72.50;;;;;;5031275;28;20384;-82
2021/06/23 08:50:42;;;;;;;3.75;1.05;;;17.00;72.40;;;;;;5032223;28;20037;-84
2021/06/23 08:53:08;;;;;;;8.15;0.75;;;17.10;72.40;;;;;;5011214;28;20046;-84
2021/06/23 08:55:35;;;;;;;4.38;0.68;;;17.10;72.40;;;;;;5021977;28;20042;-83
2021/06/23 08:58:01;;;;;;;2.97;1.02;;;17.20;72.20;;;;;;5032209;28;20033;-84
2021/06/23 09:00:27;;;;;;;3.13;0.43;;;17.20;72.00;;;;;;5014439;28;20029;-83
2021/06/23 09:03:00;;;;;;;2.63;0.57;;;17.30;72.00;;;;;;5030893;28;20029;-84
2021/06/23 09:05:26;;;;;;;0.45;0.35;;;17.40;71.80;;;;;;5014391;28;20411;-84
2021/06/23 09:07:58;;;;;;;1.25;0.40;;;17.40;71.50;;;;;;5031703;28;20017;-81
2021/06/23 09:10:24;;;;;;;2.85;0.70;;;17.40;71.30;;;;;;5030561;28;20034;-84
2021/06/23 09:13:06;;;;;;;2.70;0.70;;;17.40;71.20;;;;;;5031845;28;20487;-84
2021/06/23 09:15:51;;;;;;;0.75;0.30;;;17.50;71.20;;;;;;5024649;28;20384;-84
2021/06/23 09:18:26;;;;;;;0.60;0.40;;;17.50;71.00;;;;;;5011338;28;20045;-85
2021/06/23 09:21:00;;;;;;;3.25;0.70;;;17.60;70.90;;;;;;5012189;28;20034;-84
2021/06/23 09:23:48;;;;;;;4.50;0.57;;;17.60;70.90;;;;;;5011909;28;20042;-84
2021/06/23 09:26:19;;;;;;;2.08;0.63;;;17.60;70.90;;;;;;5012123;28;20049;-83
2021/06/23 09:29:06;;;;;;;2.15;0.88;;;17.60;70.80;;;;;;5025558;28;20042;-84
2021/06/23 09:31:52;;;;;;;4.28;0.63;;;17.60;70.80;;;;;;5000396;28;20046;-84
2021/06/23 09:34:34;;;;;;;3.50;0.52;;;17.60;70.80;;;;;;5012045;28;20045;-84
2021/06/23 09:37:02;;;;;;;1.70;0.75;;;17.70;70.80;;;;;;4997204;28;20041;-84
2021/06/23 09:39:29;;;;;;;1.02;0.32;;;17.70;71.50;;;;;;5012088;28;20030;-85
2021/06/23 09:41:56;;;;;;;2.78;1.05;;;17.70;70.60;;;;;;5012004;28;20037;-85
2021/06/23 09:44:23;;;;;;;1.30;0.50;;;17.80;70.50;;;;;;5011629;28;20045;-83
2021/06/23 09:46:50;;;;;;;1.73;0.65;;;17.80;70.50;;;;;;5026313;28;20049;-83
2021/06/23 09:49:20;;;;;;;1.85;0.70;;;17.80;70.50;;;;;;5011904;28;20034;-84
2021/06/23 09:51:54;;;;;;;3.78;1.50;;;17.90;70.50;;;;;;5010196;28;20046;-84
2021/06/23 09:54:30;;;;;;;4.78;1.23;;;17.90;70.40;;;;;;4995758;28;20037;-84
2021/06/23 09:57:02;;;;;;;0.38;0.20;;;17.80;70.40;;;;;;5008677;28;20523;-84
2021/06/23 09:59:44;;;;;;;2.30;0.52;;;17.80;70.40;;;;;;5011468;28;20435;-82
2021/06/23 10:02:23;;;;;;;0.68;0.38;;;17.90;70.40;;;;;;5011512;28;20037;-84
2021/06/23 10:04:49;;;;;;;0.93;0.32;;;17.80;70.40;;;;;;5011517;28;20048;-84
2021/06/23 10:07:45;;;;;;;0.77;0.60;;;17.80;70.40;;;;;;5026981;28;20033;-84
2021/06/23 10:10:16;;;;;;;2.80;0.73;;;17.80;70.50;;;;;;4997233;28;20029;-84
2021/06/23 10:12:46;;;;;;;2.63;0.13;;;17.80;70.30;;;;;;5026641;28;20036;-85
2021/06/23 10:15:13;;;;;;;6.53;1.02;;;17.90;70.20;;;;;;5009873;28;20400;-86
2021/06/23 10:17:39;;;;;;;1.27;0.45;;;17.90;70.30;;;;;;5026765;28;20026;-84
2021/06/23 10:20:06;;;;;;;1.45;0.43;;;17.80;70.30;;;;;;5007307;28;20041;-85
2021/06/23 10:22:32;;;;;;;2.55;0.28;;;17.80;70.30;;;;;;5017196;28;20042;-84
2021/06/23 10:25:00;;;;;;;1.67;0.60;;;17.80;70.40;;;;;;5015208;28;20484;-84
2021/06/23 10:27:26;;;;;;;1.10;0.70;;;17.80;70.40;;;;;;5015478;28;20033;-84
2021/06/23 10:29:53;;;;;;;0.70;0.32;;;17.80;70.50;;;;;;5013536;28;20492;-84
2021/06/23 10:32:19;;;;;;;0.85;0.35;;;17.80;70.50;;;;;;5028905;28;20044;-85
2021/06/23 10:34:46;;;;;;;3.92;0.65;;;17.90;70.50;;;;;;5030201;28;20030;-85
2021/06/23 10:37:13;;;;;;;0.80;0.22;;;18.10;70.30;;;;;;5015044;28;20037;-84
2021/06/23 10:39:39;;;;;;;1.80;0.60;;;18.20;70.00;;;;;;5030206;28;20499;-85
2021/06/23 10:42:06;;;;;;;1.17;0.85;;;18.30;69.80;;;;;;5008880;28;20041;-84
2021/06/23 10:44:40;;;;;;;1.02;0.30;;;18.30;69.70;;;;;;5026990;28;20510;-85
2021/06/23 10:47:08;;;;;;;0.30;0.17;;;18.30;69.70;;;;;;5028213;28;20030;-85
2021/06/23 10:49:51;;;;;;;1.25;0.35;;;18.30;70.50;;;;;;5029847;28;20030;-84
2021/06/23 10:52:20;;;;;;;0.85;0.30;;;18.30;69.70;;;;;;5014793;28;20389;-84
2021/06/23 10:55:09;;;;;;;1.55;0.30;;;18.20;69.70;;;;;;5014774;28;20041;-84
2021/06/23 10:57:38;;;;;;;0.28;0.13;;;18.20;69.90;;;;;;5011931;28;20037;-84
2021/06/23 11:00:07;;;;;;;0.63;0.15;;;18.10;69.90;;;;;;5014507;28;20034;-84
2021/06/23 11:02:37;;;;;;;0.90;0.32;;;18.10;70.00;;;;;;5014484;28;20029;-84
2021/06/23 11:05:04;;;;;;;3.22;0.20;;;18.20;69.90;;;;;;5029256;28;20033;-85
2021/06/23 11:07:33;;;;;;;0.57;0.28;;;18.20;69.80;;;;;;5014725;28;20041;-84
2021/06/23 11:10:15;;;;;;;1.85;0.50;;;18.30;70.50;;;;;;5014302;28;20033;-84
2021/06/23 11:12:47;;;;;;;1.45;0.65;;;18.30;69.60;;;;;;5014028;28;20026;-84
2021/06/23 11:15:25;;;;;;;1.08;0.03;;;18.30;69.60;;;;;;5014364;28;20037;-85
2021/06/23 11:17:53;;;;;;;1.27;0.75;;;18.30;69.60;;;;;;5028010;28;20026;-83
2021/06/23 11:20:22;;;;;;;1.88;0.50;;;18.30;69.60;;;;;;5029324;28;20022;-84
2021/06/23 11:22:53;;;;;;;1.88;0.40;;;18.30;69.80;;;;;;5014333;28;20034;-85
2021/06/23 11:25:31;;;;;;;2.78;0.55;;;18.30;69.80;;;;;;5028727;28;20048;-84
2021/06/23 11:28:10;;;;;;;0.65;0.22;;;18.20;69.80;;;;;;4997359;28;20042;-84
2021/06/23 11:30:42;;;;;;;0.75;0.30;;;18.20;69.90;;;;;;5013486;28;20048;-84
2021/06/23 11:33:26;;;;;;;0.95;0.20;;;18.20;70.80;;;;;;5012597;28;20026;-84
2021/06/23 11:35:56;;;;;;;2.35;0.52;;;18.10;70.00;;;;;;5014264;28;20030;-85
2021/06/23 11:38:23;;;;;;;2.13;0.88;;;18.10;70.00;;;;;;5029065;28;20049;-83
2021/06/23 11:40:49;;;;;;;0.50;0.25;;;18.10;69.90;;;;;;5028716;28;20025;-84
2021/06/23 11:43:15;;;;;;;1.35;0.43;;;18.20;70.60;;;;;;5013929;28;20022;-84
2021/06/23 11:45:42;;;;;;;3.03;0.45;;;18.20;69.70;;;;;;5013142;28;20044;-84
2021/06/23 11:48:08;;;;;;;1.88;0.45;;;18.20;69.70;;;;;;5013002;28;20030;-85
2021/06/23 11:50:34;;;;;;;0.90;0.20;;;18.30;69.60;;;;;;5028688;28;20483;-83
2021/06/23 11:53:05;;;;;;;0.93;0.50;;;18.30;69.60;;;;;;5028807;28;20026;-84
2021/06/23 11:55:31;;;;;;;;;;;18.40;69.60;;;;;;5027584;28;20066;-84
2021/06/23 11:57:59;;;;;;;0.47;0.22;;;18.40;69.50;;;;;;5013565;28;19916;-84
2021/06/23 12:00:26;;;;;;;0.70;0.40;;;18.40;69.30;;;;;;5028612;28;20053;-83
2021/06/23 12:02:52;;;;;;;3.03;0.57;;;18.30;69.20;;;;;;5013652;28;20030;-84
2021/06/23 12:05:18;;;;;;;1.42;0.60;;;18.30;69.30;;;;;;5028487;28;20030;-84
2021/06/23 12:07:44;;;;;;;1.48;0.40;;;18.30;69.50;;;;;;5013160;28;20400;-85
2021/06/23 12:10:11;;;;;;;0.75;0.43;;;18.20;69.40;;;;;;5028212;28;20037;-84
2021/06/23 12:12:37;;;;;;;5.00;0.75;;;18.20;69.50;;;;;;5013281;28;20038;-84
2021/06/23 12:15:08;;;;;;;1.42;0.57;;;18.20;69.50;;;;;;5013255;28;20042;-84
2021/06/23 12:17:37;;;;;;;;;;;18.30;69.60;;;;;;5013467;28;20022;-84
2021/06/23 12:20:04;;;;;;;3.72;0.93;;;18.40;69.40;;;;;;5008714;28;19910;-85
2021/06/23 12:22:31;;;;;;;1.20;0.57;;;18.50;69.10;;;;;;5017634;28;20022;-84
2021/06/23 12:24:58;;;;;;;0.22;0.10;;;18.60;68.90;;;;;;5027898;28;20037;-84
2021/06/23 12:27:24;;;;;;;1.27;0.57;;;18.80;68.80;;;;;;5013649;28;20040;-85
2021/06/23 12:29:50;;;;;;;3.13;0.55;;;18.90;68.50;;;;;;5013015;28;20407;-84
2021/06/23 12:32:16;;;;;;;2.65;0.65;;;19.10;68.30;;;;;;5027646;28;20041;-84
2021/06/23 12:34:42;;;;;;;0.80;0.20;;;19.10;68.10;;;;;;5028061;28;20038;-84
2021/06/23 12:37:08;;;;;;;2.25;0.50;;;19.10;68.00;;;;;;5028089;28;20044;-84
2021/06/23 12:39:34;;;;;;;2.05;0.82;;;19.10;68.10;;;;;;5027497;28;20502;-85
2021/06/23 12:42:00;;;;;;;2.70;0.60;;;19.10;68.20;;;;;;5013116;28;20034;-84
2021/06/23 12:44:26;;;;;;;0.75;0.30;;;19.00;68.20;;;;;;5012481;28;20052;-85
2021/06/23 12:46:53;;;;;;;1.20;0.40;;;19.00;68.30;;;;;;5011870;28;20030;-84
2021/06/23 12:49:19;;;;;;;0.80;0.30;;;19.00;68.40;;;;;;5012763;28;20400;-84
2021/06/23 12:51:45;;;;;;;1.52;0.22;;;18.90;68.30;;;;;;5012534;28;20507;-84
2021/06/23 12:54:11;;;;;;;0.52;0.30;;;18.80;68.50;;;;;;4991826;28;20049;-84
2021/06/23 12:56:37;;;;;;;0.60;0.30;;;18.70;68.60;;;;;;5010701;28;20038;-84
2021/06/23 12:59:03;;;;;;;1.35;0.47;;;18.60;68.80;;;;;;5012311;28;20480;-84
2021/06/23 13:01:30;;;;;;;0.70;0.25;;;18.60;68.90;;;;;;5027045;28;20057;-84
2021/06/23 13:03:56;;;;;;;1.35;0.20;;;18.50;68.90;;;;;;5012357;28;20037;-85
2021/06/23 13:06:22;;;;;;;1.35;0.30;;;18.50;68.90;;;;;;5012901;28;20041;-84
2021/06/23 13:08:48;;;;;;;1.42;0.50;;;18.50;69.00;;;;;;5027108;28;20472;-83
2021/06/23 13:11:15;;;;;;;0.93;0.50;;;18.50;69.00;;;;;;5012196;28;20025;-84